createdAt,value
2023-03-26T00:03:30.968Z,392.00
2023-03-26T00:07:30.948Z,394.00
2023-03-26T00:11:31.014Z,400.00
2023-03-26T00:15:31.024Z,397.00
2023-03-26T00:19:31.033Z,394.00
2023-03-26T00:23:31.094Z,392.00
2023-03-26T00:27:31.104Z,386.00
2023-03-26T00:31:31.189Z,388.00
2023-03-26T00:35:31.251Z,389.00
2023-03-26T00:39:31.247Z,389.00
2023-03-26T00:43:31.334Z,389.00
2023-03-26T00:47:31.398Z,393.00
2023-03-26T00:51:31.440Z,392.00
2023-03-26T00:55:31.520Z,391.00
2023-03-26T00:59:31.589Z,388.00
2023-03-26T01:03:31.722Z,385.00
2023-03-26T01:07:31.668Z,394.00
2023-03-26T01:11:31.689Z,393.00
2023-03-26T01:15:31.774Z,389.00
2023-03-26T01:19:31.737Z,391.00
2023-03-26T01:23:31.752Z,397.00
2023-03-26T01:27:31.761Z,397.00
2023-03-26T01:31:31.761Z,396.00
2023-03-26T01:35:31.838Z,397.00
2023-03-26T01:39:31.830Z,402.00
2023-03-26T01:43:31.844Z,400.00
2023-03-26T01:47:31.879Z,397.00
2023-03-26T01:51:31.824Z,401.00
2023-03-26T01:55:31.812Z,398.00
2023-03-26T01:59:31.821Z,396.00
2023-03-26T02:03:31.920Z,394.00
2023-03-26T02:07:31.848Z,393.00
2023-03-26T02:11:35.444Z,398.00
2023-03-26T04:11:31.141Z,412.00
2023-03-26T04:15:31.156Z,410.00
2023-03-26T04:19:31.133Z,412.00
2023-03-26T04:23:31.164Z,413.00
2023-03-26T04:27:31.168Z,411.00
2023-03-26T04:31:31.231Z,411.00
2023-03-26T04:35:31.161Z,412.00
2023-03-26T04:39:31.152Z,416.00
2023-03-26T04:43:31.211Z,411.00
2023-03-26T04:47:31.154Z,409.00
2023-03-26T04:51:31.149Z,409.00
2023-03-26T04:55:31.152Z,410.00
2023-03-26T04:59:31.176Z,407.00
2023-03-26T05:03:31.186Z,414.00
2023-03-26T05:07:31.192Z,412.00
2023-03-26T05:11:31.205Z,413.00
2023-03-26T05:15:31.213Z,413.00
2023-03-26T05:19:31.224Z,414.00
2023-03-26T05:23:31.221Z,412.00
2023-03-26T05:27:31.235Z,412.00
2023-03-26T05:31:31.293Z,410.00
2023-03-26T05:35:31.376Z,414.00
2023-03-26T05:39:31.291Z,416.00
2023-03-26T05:43:31.360Z,416.00
2023-03-26T05:47:31.377Z,412.00
2023-03-26T05:51:31.358Z,412.00
2023-03-26T05:55:31.389Z,413.00
2023-03-26T05:59:31.475Z,408.00
2023-03-26T06:03:31.723Z,407.00
2023-03-26T06:07:31.626Z,412.00
2023-03-26T06:11:31.768Z,420.00
2023-03-26T06:15:31.896Z,418.00
2023-03-26T06:19:31.975Z,415.00
2023-03-26T06:23:32.138Z,411.00
2023-03-26T06:27:32.269Z,411.00
2023-03-26T06:31:32.493Z,404.00
2023-03-26T06:35:32.522Z,409.00
2023-03-26T06:39:32.397Z,412.00
2023-03-26T06:43:32.377Z,415.00
2023-03-26T06:47:32.368Z,418.00
2023-03-26T06:51:32.309Z,416.00
2023-03-26T06:55:32.266Z,419.00
2023-03-26T06:59:32.243Z,416.00
2023-03-26T07:03:32.213Z,415.00
2023-03-26T07:07:32.160Z,410.00
2023-03-26T07:11:32.131Z,410.00
2023-03-26T07:15:32.078Z,412.00
2023-03-26T07:19:32.069Z,410.00
2023-03-26T07:23:32.065Z,409.00
2023-03-26T07:27:32.272Z,407.00
2023-03-26T07:31:32.325Z,407.00
2023-03-26T07:35:32.634Z,405.00
2023-03-26T07:39:32.368Z,411.00
2023-03-26T07:43:32.462Z,408.00
2023-03-26T07:47:32.557Z,412.00
2023-03-26T07:51:32.552Z,409.00
2023-03-26T07:55:32.726Z,409.00
2023-03-26T07:59:32.684Z,411.00
2023-03-26T08:03:32.814Z,412.00
2023-03-26T08:07:32.609Z,411.00
2023-03-26T08:11:32.576Z,408.00
2023-03-26T08:15:32.634Z,407.00
2023-03-26T08:19:32.516Z,403.00
2023-03-26T08:23:32.567Z,404.00
2023-03-26T08:27:32.435Z,406.00
2023-03-26T08:31:32.447Z,412.00
2023-03-26T08:35:32.498Z,407.00
2023-03-26T08:39:32.336Z,409.00
2023-03-26T08:43:32.327Z,410.00
2023-03-26T08:47:32.326Z,414.00
2023-03-26T08:51:32.507Z,412.00
2023-03-26T08:55:32.729Z,410.00
2023-03-26T08:59:32.959Z,412.00
2023-03-26T09:03:32.916Z,409.00
2023-03-26T09:07:32.871Z,407.00
2023-03-26T09:11:32.811Z,405.00
2023-03-26T09:15:32.769Z,403.00
2023-03-26T09:19:32.784Z,405.00
2023-03-26T09:23:32.697Z,404.00
2023-03-26T09:27:32.683Z,400.00
2023-03-26T09:31:32.704Z,401.00
2023-03-26T09:35:32.697Z,406.00
2023-03-26T09:39:32.565Z,404.00
2023-03-26T09:43:32.531Z,405.00
2023-03-26T09:47:32.535Z,403.00
2023-03-26T09:51:32.466Z,404.00
2023-03-26T09:55:32.450Z,399.00
2023-03-26T09:59:32.376Z,395.00
2023-03-26T10:03:32.354Z,394.00
2023-03-26T10:07:32.313Z,392.00
2023-03-26T10:11:32.299Z,391.00
2023-03-26T10:15:32.253Z,394.00
2023-03-26T10:19:32.195Z,395.00
2023-03-26T10:23:32.272Z,396.00
2023-03-26T10:27:32.335Z,397.00
2023-03-26T10:31:32.330Z,398.00
2023-03-26T10:35:32.420Z,395.00
2023-03-26T10:39:36.251Z,402.00
2023-03-26T10:43:33.322Z,403.00
2023-03-26T10:47:32.341Z,399.00
2023-03-26T10:51:32.246Z,401.00
2023-03-26T10:55:32.208Z,400.00
2023-03-26T10:59:32.179Z,398.00
2023-03-26T11:03:32.137Z,396.00
2023-03-26T11:07:32.099Z,398.00
2023-03-26T11:11:32.091Z,396.00
2023-03-26T11:15:32.085Z,393.00
2023-03-26T11:19:32.019Z,390.00
2023-03-26T11:23:31.983Z,392.00
2023-03-26T11:27:31.934Z,390.00
2023-03-26T11:31:31.958Z,394.00
2023-03-26T11:35:40.462Z,393.00
2023-03-26T11:39:32.843Z,391.00
2023-03-26T11:43:31.825Z,392.00
2023-03-26T11:47:31.789Z,389.00
2023-03-26T11:51:31.738Z,391.00
2023-03-26T11:55:31.680Z,396.00
2023-03-26T11:59:32.740Z,395.00
2023-03-26T12:03:31.612Z,397.00
2023-03-26T12:07:31.588Z,397.00
2023-03-26T12:11:33.890Z,395.00
2023-03-26T12:15:31.512Z,390.00
2023-03-26T12:19:31.477Z,390.00
2023-03-26T12:23:31.473Z,386.00
2023-03-26T12:27:31.408Z,383.00
2023-03-26T12:31:31.413Z,388.00
2023-03-26T12:35:31.340Z,390.00
2023-03-26T12:40:07.350Z,390.00
2023-03-26T12:44:53.907Z,383.00
2023-03-26T12:48:00.250Z,383.00
2023-03-26T12:51:32.196Z,383.00
2023-03-26T12:55:31.159Z,383.00
2023-03-26T12:59:31.117Z,383.00
2023-03-26T13:03:31.180Z,385.00
2023-03-26T13:07:31.077Z,387.00
2023-03-26T13:11:31.033Z,390.00
2023-03-26T13:15:30.976Z,387.00
2023-03-26T13:19:30.960Z,383.00
2023-03-26T13:23:30.922Z,385.00
2023-03-26T13:27:30.885Z,385.00
2023-03-26T13:31:31.051Z,389.00
2023-03-26T13:35:31.170Z,386.00
2023-03-26T13:39:31.361Z,385.00
2023-03-26T13:43:31.382Z,386.00
2023-03-26T13:47:31.542Z,385.00
2023-03-26T13:51:31.638Z,386.00
2023-03-26T13:55:31.802Z,385.00
2023-03-26T13:59:31.912Z,387.00
2023-03-26T14:03:32.142Z,387.00
2023-03-26T14:07:32.205Z,387.00
2023-03-26T14:11:32.344Z,387.00
2023-03-26T14:15:32.506Z,386.00
2023-03-26T14:19:32.637Z,386.00
2023-03-26T14:23:32.815Z,388.00
2023-03-26T14:27:32.964Z,382.00
2023-03-26T14:31:33.172Z,389.00
2023-03-26T14:35:33.265Z,384.00
2023-03-26T14:39:33.423Z,388.00
2023-03-26T14:43:33.593Z,383.00
2023-03-26T14:47:33.964Z,381.00
2023-03-26T14:51:33.989Z,387.00
2023-03-26T14:55:34.148Z,383.00
2023-03-26T14:59:34.344Z,383.00
2023-03-26T15:03:34.543Z,377.00
2023-03-26T15:07:34.679Z,379.00
2023-03-26T15:11:34.886Z,379.00
2023-03-26T15:15:35.092Z,383.00
2023-03-26T15:19:35.257Z,379.00
2023-03-26T15:23:35.441Z,385.00
2023-03-26T15:27:35.675Z,385.00
2023-03-26T15:31:35.881Z,383.00
2023-03-26T15:35:36.070Z,385.00
2023-03-26T15:39:36.248Z,386.00
2023-03-26T15:43:36.473Z,392.00
2023-03-26T15:47:36.721Z,387.00
2023-03-26T15:51:46.583Z,390.00
2023-03-26T15:55:37.852Z,389.00
2023-03-26T15:59:36.818Z,391.00
2023-03-26T16:03:36.916Z,387.00
2023-03-26T16:07:37.116Z,391.00
2023-03-26T16:11:37.103Z,390.00
2023-03-26T16:15:37.105Z,393.00
2023-03-26T16:19:37.026Z,392.00
2023-03-26T16:23:47.201Z,394.00
2023-03-26T16:27:38.135Z,397.00
2023-03-26T16:31:39.241Z,395.00
2023-03-26T16:35:37.600Z,398.00
2023-03-26T16:39:37.507Z,391.00
2023-03-26T16:43:37.472Z,386.00
2023-03-26T16:47:37.459Z,387.00
2023-03-26T16:51:37.408Z,386.00
2023-03-26T16:55:37.400Z,389.00
2023-03-26T16:59:37.325Z,392.00
2023-03-26T17:03:37.455Z,391.00
2023-03-26T17:07:37.243Z,392.00
2023-03-26T17:11:37.270Z,393.00
2023-03-26T17:15:37.221Z,392.00
2023-03-26T17:19:37.229Z,390.00
2023-03-26T17:23:39.659Z,389.00
2023-03-26T17:27:37.123Z,389.00
2023-03-26T17:31:37.150Z,384.00
2023-03-26T17:35:37.098Z,385.00
2023-03-26T17:39:37.000Z,389.00
2023-03-26T17:43:36.961Z,390.00
2023-03-26T17:47:36.948Z,392.00
2023-03-26T17:51:36.898Z,392.00
2023-03-26T17:55:36.877Z,396.00
2023-03-26T17:59:38.784Z,395.00
2023-03-26T18:03:36.829Z,394.00
2023-03-26T18:07:36.756Z,388.00
2023-03-26T18:11:36.700Z,392.00
2023-03-26T18:15:36.687Z,388.00
2023-03-26T18:19:36.635Z,388.00
2023-03-26T18:23:36.603Z,392.00
2023-03-26T18:27:36.570Z,394.00
2023-03-26T18:31:36.548Z,390.00
2023-03-26T18:35:36.523Z,390.00
2023-03-26T18:39:36.445Z,389.00
2023-03-26T18:43:44.475Z,385.00
2023-03-26T18:47:37.391Z,382.00
2023-03-26T18:51:43.202Z,389.00
2023-03-26T18:55:37.303Z,396.00
2023-03-26T18:59:36.326Z,392.00
2023-03-26T19:03:36.289Z,390.00
2023-03-26T19:07:36.176Z,386.00
2023-03-26T19:11:36.307Z,387.00
2023-03-26T19:15:36.450Z,387.00
2023-03-26T19:19:36.603Z,389.00
2023-03-26T19:23:36.753Z,386.00
2023-03-26T19:27:36.962Z,386.00
2023-03-26T19:31:37.189Z,387.00
2023-03-26T19:35:37.246Z,397.00
2023-03-26T19:39:37.811Z,391.00
2023-03-26T19:43:37.525Z,388.00
2023-03-26T19:47:48.466Z,383.00
2023-03-26T19:51:38.657Z,384.00
2023-03-26T19:55:37.599Z,383.00
2023-03-26T19:59:37.735Z,385.00
2023-03-26T20:03:38.234Z,385.00
2023-03-26T20:07:38.067Z,384.00
2023-03-26T20:11:38.182Z,391.00
2023-03-26T20:15:38.325Z,389.00
2023-03-26T20:19:38.428Z,383.00
2023-03-26T20:23:38.541Z,381.00
2023-03-26T20:27:38.650Z,379.00
2023-03-26T20:31:38.770Z,377.00
2023-03-26T20:35:38.920Z,374.00
2023-03-26T20:39:39.073Z,376.00
2023-03-26T20:43:39.196Z,375.00
2023-03-26T20:47:39.322Z,371.00
2023-03-26T20:51:39.451Z,373.00
2023-03-26T20:55:41.134Z,375.00
2023-03-26T20:59:39.801Z,376.00
2023-03-26T21:03:39.793Z,374.00
2023-03-26T21:07:39.919Z,376.00
2023-03-26T21:11:40.024Z,381.00
2023-03-26T21:15:40.186Z,377.00
2023-03-26T21:19:40.267Z,387.00
2023-03-26T21:23:40.309Z,380.00
2023-03-26T21:27:40.408Z,378.00
2023-03-26T21:31:40.530Z,380.00
2023-03-26T21:35:40.630Z,378.00
2023-03-26T21:39:40.551Z,384.00
2023-03-26T21:43:40.635Z,385.00
2023-03-26T21:47:40.734Z,389.00
2023-03-26T21:51:40.708Z,390.00
2023-03-26T21:55:40.749Z,383.00
2023-03-26T21:59:40.749Z,383.00
2023-03-26T22:03:40.797Z,386.00
2023-03-26T22:07:40.798Z,378.00
2023-03-26T22:11:40.799Z,381.00
2023-03-26T22:15:40.814Z,382.00
2023-03-26T22:19:40.793Z,383.00
2023-03-26T22:23:40.850Z,384.00
2023-03-26T22:27:44.163Z,382.00
2023-03-26T22:31:40.911Z,380.00
2023-03-26T22:35:40.825Z,378.00
2023-03-26T22:39:40.757Z,377.00
2023-03-26T22:43:40.704Z,378.00
2023-03-26T22:47:40.675Z,377.00
2023-03-26T22:51:40.619Z,381.00
2023-03-26T22:55:40.585Z,386.00
2023-03-26T22:59:40.541Z,383.00
2023-03-26T23:03:40.522Z,381.00
2023-03-26T23:07:40.475Z,382.00
2023-03-26T23:11:40.430Z,382.00
2023-03-26T23:15:40.398Z,383.00
2023-03-26T23:19:40.369Z,388.00
2023-03-26T23:23:40.320Z,384.00
2023-03-26T23:27:40.329Z,388.00
2023-03-26T23:31:40.304Z,384.00
2023-03-26T23:35:40.209Z,383.00
2023-03-26T23:39:40.191Z,388.00
2023-03-26T23:43:40.147Z,390.00
2023-03-26T23:47:41.132Z,391.00
2023-03-26T23:51:40.093Z,391.00
2023-03-26T23:55:40.046Z,392.00
2023-03-26T23:59:39.985Z,394.00
